Time;durP1;ratioP1;P1;durP2;ratioP2;P2;SDS_P1;SDS_P2;PMS_P1;PMS_P2;Temp;Humidity;BMP_temperature;BMP_pressure;BME280_temperature;BME280_humidity;BME280_pressure;Samples;Min_cycle;Max_cycle;Signal;HPM_P1;HPM_P2
2023/01/14 00:01:43;;;;;;;30.88;5.95;;;6.70;99.90;;;;;;6153552;23;20018;-85
2023/01/14 00:04:09;;;;;;;31.63;5.72;;;6.30;99.90;;;;;;6128183;23;20010;-86
2023/01/14 00:06:35;;;;;;;36.55;5.38;;;6.30;99.90;;;;;;6154018;23;20006;-86
2023/01/14 00:09:04;;;;;;;31.90;5.47;;;6.30;99.90;;;;;;6154506;23;20037;-85
2023/01/14 00:14:16;;;;;;;28.73;5.93;;;6.50;99.90;;;;;;6152233;23;20108;-86
2023/01/14 00:16:42;;;;;;;42.55;6.05;;;6.40;99.90;;;;;;6153634;23;20013;-86
2023/01/14 00:19:09;;;;;;;29.77;5.95;;;6.60;99.90;;;;;;6152555;23;20020;-86
2023/01/14 00:21:35;;;;;;;28.58;5.93;;;6.80;99.90;;;;;;6152782;23;20068;-86
2023/01/14 00:24:01;;;;;;;27.23;5.70;;;6.40;99.90;;;;;;6152213;23;20372;-86
2023/01/14 00:26:27;;;;;;;30.00;5.70;;;6.50;99.90;;;;;;6153077;23;20020;-86
2023/01/14 00:28:53;;;;;;;29.00;5.18;;;6.50;99.90;;;;;;6152650;23;20215;-86
2023/01/14 00:31:22;;;;;;;33.20;5.53;;;6.90;99.90;;;;;;6153756;23;20013;-85
2023/01/14 00:33:48;;;;;;;26.52;5.13;;;6.60;99.90;;;;;;6152528;23;20028;-86
2023/01/14 00:36:16;;;;;;;30.50;6.78;;;6.60;99.90;;;;;;6152127;23;20120;-86
2023/01/14 00:38:42;;;;;;;29.33;5.40;;;6.60;99.90;;;;;;6151968;23;20293;-86
2023/01/14 00:41:10;;;;;;;26.58;5.57;;;6.60;99.90;;;;;;6152646;23;20013;-86
2023/01/14 00:43:38;;;;;;;28.38;5.50;;;6.70;99.90;;;;;;6152226;23;20100;-86
2023/01/14 00:46:06;;;;;;;20.88;4.22;;;6.60;99.90;;;;;;6151343;23;20080;-85
2023/01/14 00:48:36;;;;;;;23.73;5.00;;;6.80;99.90;;;;;;6152173;23;20017;-84
2023/01/14 00:51:02;;;;;;;25.63;5.00;;;6.60;99.90;;;;;;6127947;23;20356;-84
2023/01/14 00:53:28;;;;;;;23.40;4.88;;;6.60;99.90;;;;;;6152574;23;20013;-85
2023/01/14 00:55:54;;;;;;;21.90;4.60;;;6.60;99.90;;;;;;6153201;23;20018;-85
2023/01/14 00:58:20;;;;;;;26.00;4.97;;;6.70;99.90;;;;;;6154050;23;20032;-84
2023/01/14 01:00:46;;;;;;;28.77;4.57;;;6.60;99.90;;;;;;6153505;23;20013;-84
2023/01/14 01:03:13;;;;;;;20.15;4.60;;;6.50;99.90;;;;;;6155453;23;20294;-84
2023/01/14 01:05:39;;;;;;;26.38;4.68;;;6.60;99.90;;;;;;6154086;23;20543;-84
2023/01/14 01:08:06;;;;;;;27.25;4.38;;;6.60;99.90;;;;;;6156253;23;20018;-85
2023/01/14 01:10:34;;;;;;;27.17;5.20;;;6.60;99.90;;;;;;6154371;23;20290;-85
2023/01/14 01:13:01;;;;;;;27.40;4.75;;;6.60;99.90;;;;;;6158433;23;20009;-84
2023/01/14 01:15:27;;;;;;;30.75;5.25;;;6.60;99.90;;;;;;6159177;23;20083;-84
2023/01/14 01:17:52;;;;;;;24.23;4.57;;;6.60;99.90;;;;;;6154343;23;20468;-85
2023/01/14 01:20:18;;;;;;;32.33;5.50;;;6.60;99.90;;;;;;6129649;23;20010;-84
2023/01/14 01:22:43;;;;;;;28.75;6.35;;;6.50;99.90;;;;;;6153690;23;20108;-84
2023/01/14 01:25:09;;;;;;;21.75;4.13;;;6.60;99.90;;;;;;6154299;23;20290;-84
2023/01/14 01:27:35;;;;;;;27.27;5.70;;;6.40;99.90;;;;;;6154164;23;20037;-85
2023/01/14 01:30:00;;;;;;;32.05;6.30;;;6.30;99.90;;;;;;6153872;23;20013;-85
2023/01/14 01:32:26;;;;;;;28.90;5.43;;;6.30;99.90;;;;;;6129368;23;20017;-84
2023/01/14 01:34:52;;;;;;;26.98;4.95;;;6.60;99.90;;;;;;6129148;23;20045;-84
2023/01/14 01:37:18;;;;;;;26.50;5.47;;;6.30;99.90;;;;;;6153691;23;20041;-85
2023/01/14 01:39:44;;;;;;;28.58;5.40;;;6.40;99.90;;;;;;6153625;23;20026;-85
2023/01/14 01:42:14;;;;;;;26.98;5.20;;;6.20;99.90;;;;;;6153171;23;20056;-84
2023/01/14 01:44:39;;;;;;;23.73;5.47;;;6.20;99.90;;;;;;6153497;23;20044;-84
2023/01/14 01:47:07;;;;;;;29.42;5.80;;;6.10;99.90;;;;;;6156092;23;20298;-85
2023/01/14 01:49:35;;;;;;;32.95;5.53;;;6.60;99.90;;;;;;6155042;23;20026;-85
2023/01/14 01:52:04;;;;;;;27.70;5.15;;;6.00;99.90;;;;;;6155583;23;20026;-84
2023/01/14 01:54:38;;;;;;;38.78;6.18;;;6.00;99.90;;;;;;6129352;23;20128;-85
2023/01/14 01:57:07;;;;;;;24.30;5.05;;;6.10;99.90;;;;;;6153928;23;20096;-85
2023/01/14 01:59:39;;;;;;;26.17;5.20;;;6.00;99.90;;;;;;6155006;23;20053;-85
2023/01/14 02:02:05;;;;;;;24.75;5.22;;;6.00;99.90;;;;;;6153708;23;20013;-85
2023/01/14 02:04:31;;;;;;;34.83;5.55;;;6.00;99.90;;;;;;6128384;23;20017;-84
2023/01/14 02:06:57;;;;;;;28.60;5.35;;;6.00;99.90;;;;;;6152956;23;20033;-85
2023/01/14 02:09:23;;;;;;;32.40;5.90;;;6.10;99.90;;;;;;6153735;23;20005;-85
2023/01/14 02:12:07;;;;;;;30.55;5.03;;;6.10;99.90;;;;;;6154732;23;20017;-84
2023/01/14 02:14:37;;;;;;;;;;;6.20;99.90;;;;;;6154177;23;20032;-84
2023/01/14 02:17:42;;;;;;;34.53;5.57;;;6.20;99.90;;;;;;6153366;23;19913;-85
2023/01/14 02:20:14;;;;;;;29.30;5.15;;;6.30;99.90;;;;;;6045100;23;20125;-85
2023/01/14 02:22:45;;;;;;;36.67;5.22;;;6.40;99.90;;;;;;6045260;23;20027;-85
2023/01/14 02:25:19;;;;;;;33.53;5.60;;;6.40;99.90;;;;;;6093953;23;20046;-85
2023/01/14 02:27:49;;;;;;;29.23;5.60;;;6.50;99.90;;;;;;6092853;23;20014;-85
2023/01/14 02:30:24;;;;;;;29.58;5.75;;;6.50;99.90;;;;;;6069982;23;20025;-84
2023/01/14 02:32:53;;;;;;;29.33;6.43;;;6.40;99.90;;;;;;6069134;23;20015;-85
2023/01/14 02:35:26;;;;;;;31.67;4.80;;;6.50;99.90;;;;;;6045359;23;20022;-85
2023/01/14 02:38:28;;;;;;;24.52;5.05;;;6.40;99.90;;;;;;6069188;23;20014;-84
2023/01/14 02:41:20;;;;;;;28.92;6.38;;;6.50;99.90;;;;;;6092009;23;20019;-85
2023/01/14 02:44:10;;;;;;;22.23;5.75;;;6.40;99.90;;;;;;6070971;23;20025;-85
2023/01/14 02:46:44;;;;;;;28.50;5.53;;;6.80;99.90;;;;;;6093501;23;20045;-83
2023/01/14 02:49:14;;;;;;;28.65;5.30;;;6.30;99.90;;;;;;6070274;23;20343;-85
2023/01/14 02:51:41;;;;;;;28.02;5.28;;;6.50;99.90;;;;;;6093657;23;20018;-85
2023/01/14 02:54:07;;;;;;;22.92;4.80;;;6.30;99.90;;;;;;6093409;23;20062;-84
2023/01/14 02:56:33;;;;;;;36.25;5.57;;;6.30;99.90;;;;;;6115867;23;20014;-84
2023/01/14 02:59:17;;;;;;;35.80;5.35;;;6.60;99.90;;;;;;6155044;23;20009;-84
2023/01/14 03:01:52;;;;;;;23.90;4.45;;;6.30;99.90;;;;;;6128687;23;20024;-84
2023/01/14 03:04:35;;;;;;;27.02;5.32;;;6.20;99.90;;;;;;6154904;23;20428;-84
2023/01/14 03:07:10;;;;;;;23.40;5.20;;;6.10;99.90;;;;;;6154549;23;20010;-83
2023/01/14 03:09:52;;;;;;;24.35;4.90;;;6.10;99.90;;;;;;6154757;23;20010;-84
2023/01/14 03:12:32;;;;;;;30.52;5.32;;;6.00;99.90;;;;;;6153160;23;20013;-83
2023/01/14 03:15:08;;;;;;;28.50;4.93;;;6.00;99.90;;;;;;6154362;23;20021;-85
2023/01/14 03:17:40;;;;;;;34.45;5.85;;;5.90;99.90;;;;;;6153348;23;20009;-84
2023/01/14 03:20:16;;;;;;;26.63;5.45;;;5.90;99.90;;;;;;6154768;23;20020;-84
2023/01/14 03:22:42;;;;;;;32.45;6.22;;;6.00;99.90;;;;;;6153788;23;20024;-84
2023/01/14 03:25:11;;;;;;;31.80;5.57;;;5.90;99.90;;;;;;6128958;23;20009;-84
2023/01/14 03:27:39;;;;;;;22.75;5.25;;;5.80;99.90;;;;;;6155072;23;20064;-84
2023/01/14 03:30:10;;;;;;;25.15;5.40;;;5.70;99.90;;;;;;6129534;23;20293;-84
2023/01/14 03:32:46;;;;;;;37.03;5.75;;;5.70;99.90;;;;;;6129854;23;20032;-84
2023/01/14 03:35:22;;;;;;;30.20;5.50;;;5.60;99.90;;;;;;6156384;23;20099;-84
2023/01/14 03:37:57;;;;;;;33.80;4.97;;;5.70;99.90;;;;;;6130847;23;20092;-84
2023/01/14 03:40:26;;;;;;;35.85;5.72;;;5.60;99.90;;;;;;6153841;23;20020;-84
2023/01/14 03:43:00;;;;;;;32.63;4.95;;;5.60;99.90;;;;;;6155111;23;20080;-84
2023/01/14 03:45:36;;;;;;;31.58;5.65;;;5.60;99.90;;;;;;6155901;23;20013;-84
2023/01/14 03:48:02;;;;;;;25.98;5.10;;;5.50;99.90;;;;;;6156528;23;20076;-84
2023/01/14 03:50:45;;;;;;;28.75;6.13;;;5.50;99.90;;;;;;6155136;23;20072;-84
2023/01/14 03:54:06;;;;;;;36.58;5.72;;;5.50;99.90;;;;;;6157300;23;20025;-84
2023/01/14 03:56:58;;;;;;;38.83;6.10;;;5.40;99.90;;;;;;6031613;23;20015;-84
2023/01/14 03:59:50;;;;;;;28.35;5.18;;;5.60;99.90;;;;;;6061975;23;20061;-84
2023/01/14 04:02:18;;;;;;;28.63;5.57;;;5.40;99.90;;;;;;6066744;23;20445;-84
2023/01/14 04:04:45;;;;;;;30.33;6.07;;;5.30;99.90;;;;;;6019434;23;20472;-84
2023/01/14 04:07:11;;;;;;;37.70;6.07;;;5.40;99.90;;;;;;6067346;23;20025;-85
2023/01/14 04:09:36;;;;;;;27.52;5.30;;;5.30;99.90;;;;;;6042797;23;20090;-84
2023/01/14 04:12:02;;;;;;;25.85;5.35;;;5.80;99.90;;;;;;6065941;23;20026;-84
2023/01/14 04:17:12;;;;;;;24.50;4.82;;;5.30;99.90;;;;;;6065845;23;20439;-84
2023/01/14 04:19:38;;;;;;;40.15;5.65;;;5.30;99.90;;;;;;6040616;23;20019;-84
2023/01/14 04:22:04;;;;;;;30.25;5.60;;;5.30;99.90;;;;;;6041321;23;20022;-85
2023/01/14 04:24:29;;;;;;;34.20;5.65;;;5.40;99.90;;;;;;6065198;23;20315;-84
2023/01/14 04:26:55;;;;;;;27.48;5.30;;;5.40;99.90;;;;;;6041552;23;20018;-85
2023/01/14 04:29:20;;;;;;;31.88;5.22;;;5.40;99.90;;;;;;6066022;23;20011;-84
2023/01/14 04:31:46;;;;;;;33.88;5.32;;;5.60;99.90;;;;;;6065212;23;20019;-83
2023/01/14 04:34:12;;;;;;;30.77;5.63;;;5.40;99.90;;;;;;6137803;23;20013;-84
2023/01/14 04:36:37;;;;;;;32.85;6.03;;;5.40;99.90;;;;;;6158610;23;20013;-85
2023/01/14 04:39:03;;;;;;;27.38;5.47;;;5.60;99.90;;;;;;6157308;23;20017;-85
2023/01/14 04:44:12;;;;;;;27.40;5.25;;;5.30;99.90;;;;;;6155689;23;20017;-84
2023/01/14 04:46:38;;;;;;;35.60;5.32;;;5.40;99.90;;;;;;6155938;23;20014;-84
2023/01/14 04:49:04;;;;;;;25.77;4.82;;;5.30;99.90;;;;;;6155781;23;20154;-85
2023/01/14 04:51:29;;;;;;;23.95;4.45;;;5.20;99.90;;;;;;6154743;23;20068;-84
2023/01/14 04:53:55;;;;;;;26.48;5.15;;;5.40;99.90;;;;;;6131193;23;20340;-84
2023/01/14 04:56:21;;;;;;;28.00;5.25;;;5.20;99.90;;;;;;6130925;23;20013;-84
2023/01/14 04:58:47;;;;;;;28.85;6.28;;;5.20;99.90;;;;;;6157122;23;20077;-84
2023/01/14 05:01:12;;;;;;;32.47;4.85;;;5.30;99.90;;;;;;6155136;23;20052;-84
2023/01/14 05:03:38;;;;;;;27.35;4.60;;;5.30;99.90;;;;;;6155828;23;20010;-85
2023/01/14 05:06:04;;;;;;;27.70;5.05;;;5.30;99.90;;;;;;6156046;23;20014;-84
2023/01/14 05:08:30;;;;;;;26.77;5.82;;;5.30;99.90;;;;;;6157513;23;20352;-84
2023/01/14 05:10:56;;;;;;;27.15;5.05;;;5.60;99.90;;;;;;6157235;23;20113;-83
2023/01/14 05:13:21;;;;;;;27.23;5.13;;;5.30;99.90;;;;;;6131671;23;20421;-84
2023/01/14 05:15:47;;;;;;;30.42;4.90;;;5.30;99.90;;;;;;6157257;23;20016;-85
2023/01/14 05:18:15;;;;;;;27.92;4.47;;;5.20;99.90;;;;;;6158630;23;20009;-84
2023/01/14 05:20:41;;;;;;;27.35;5.05;;;5.20;99.90;;;;;;6131400;23;20032;-84
2023/01/14 05:23:16;;;;;;;33.10;5.40;;;5.20;99.90;;;;;;6155590;23;20014;-84
2023/01/14 05:25:42;;;;;;;28.38;4.82;;;5.20;99.90;;;;;;6130627;23;20028;-84
2023/01/14 05:28:17;;;;;;;27.75;4.85;;;5.20;99.90;;;;;;6155988;23;20010;-85
2023/01/14 05:30:43;;;;;;;25.92;5.07;;;5.20;99.90;;;;;;6130822;23;20068;-83
2023/01/14 05:33:08;;;;;;;26.70;5.25;;;5.30;99.90;;;;;;6156069;23;20013;-84
2023/01/14 05:35:34;;;;;;;28.33;5.40;;;5.40;99.90;;;;;;6155155;23;20083;-85
2023/01/14 05:38:00;;;;;;;28.23;5.13;;;5.40;99.90;;;;;;6155291;23;20014;-84
2023/01/14 05:40:26;;;;;;;29.08;5.47;;;5.40;99.90;;;;;;6156890;23;20021;-84
2023/01/14 05:45:41;;;;;;;33.65;6.00;;;5.30;99.90;;;;;;6155062;23;20017;-85
2023/01/14 05:48:11;;;;;;;25.58;5.68;;;5.40;99.90;;;;;;6130692;23;20072;-85
2023/01/14 05:50:40;;;;;;;27.27;5.82;;;5.40;99.90;;;;;;6157177;23;20048;-85
2023/01/14 05:53:07;;;;;;;32.50;6.40;;;5.40;99.90;;;;;;6155716;23;20374;-84
2023/01/14 05:55:33;;;;;;;28.38;6.13;;;5.40;99.90;;;;;;6155430;23;20029;-84
2023/01/14 05:58:03;;;;;;;35.72;5.50;;;5.40;99.90;;;;;;6157120;23;20092;-85
2023/01/14 06:08:33;;;;;;;35.80;7.22;;;5.40;99.90;;;;;;6156400;23;20096;-85
2023/01/14 06:10:59;;;;;;;42.15;6.88;;;5.40;99.90;;;;;;6156605;23;20014;-83
2023/01/14 06:13:25;;;;;;;33.33;6.35;;;5.40;99.90;;;;;;6155504;23;20353;-85
2023/01/14 06:15:52;;;;;;;32.80;6.60;;;5.50;99.90;;;;;;6156954;23;20013;-84
2023/01/14 06:18:22;;;;;;;33.67;7.10;;;5.40;99.90;;;;;;6154439;23;20021;-85
2023/01/14 06:20:53;;;;;;;33.65;6.90;;;5.40;99.90;;;;;;6155930;23;20072;-85
2023/01/14 06:23:21;;;;;;;32.45;6.55;;;5.40;99.90;;;;;;6132051;23;20136;-85
2023/01/14 06:25:48;;;;;;;33.10;7.13;;;5.40;99.90;;;;;;6155863;23;20018;-85
2023/01/14 06:28:16;;;;;;;30.20;7.00;;;5.40;99.90;;;;;;6157494;23;20009;-85
2023/01/14 06:30:42;;;;;;;35.00;7.90;;;5.40;99.90;;;;;;6131070;23;20049;-84
2023/01/14 06:33:08;;;;;;;37.67;8.65;;;5.90;99.90;;;;;;6157703;23;20153;-85
2023/01/14 06:35:35;;;;;;;40.65;8.90;;;5.50;99.90;;;;;;6159506;23;20025;-85
2023/01/14 06:38:00;;;;;;;39.22;8.45;;;5.40;99.90;;;;;;6158586;23;20006;-85
2023/01/14 06:40:26;;;;;;;36.90;9.48;;;5.40;99.90;;;;;;6156272;23;20107;-84
2023/01/14 06:42:55;;;;;;;38.15;9.38;;;5.40;99.90;;;;;;6152391;23;20043;-84
2023/01/14 06:45:22;;;;;;;43.30;9.50;;;5.40;99.90;;;;;;6154431;23;20093;-85
2023/01/14 06:47:47;;;;;;;39.38;9.85;;;5.40;99.90;;;;;;6156374;23;20005;-84
2023/01/14 06:50:14;;;;;;;42.65;10.65;;;5.40;99.90;;;;;;6152202;23;20085;-83
2023/01/14 06:52:39;;;;;;;48.03;10.88;;;5.40;99.90;;;;;;6160581;23;20092;-85
2023/01/14 06:55:06;;;;;;;40.88;9.68;;;5.40;99.90;;;;;;6133827;23;20044;-85
2023/01/14 06:57:32;;;;;;;38.83;10.80;;;5.30;99.90;;;;;;6156533;23;20013;-85
2023/01/14 06:59:57;;;;;;;45.55;10.30;;;5.90;99.90;;;;;;6155017;23;20432;-84
2023/01/14 07:02:23;;;;;;;35.28;9.88;;;5.40;99.90;;;;;;6156566;23;20010;-83
2023/01/14 07:04:48;;;;;;;41.05;10.18;;;5.40;99.90;;;;;;6130511;23;20018;-85
2023/01/14 07:07:14;;;;;;;35.50;10.38;;;5.40;99.90;;;;;;6154928;23;20010;-85
2023/01/14 07:09:40;;;;;;;48.22;9.98;;;5.40;99.90;;;;;;6154448;23;20112;-84
2023/01/14 07:12:05;;;;;;;44.97;11.43;;;5.40;99.90;;;;;;6155260;23;20021;-84
2023/01/14 07:14:31;;;;;;;43.15;9.98;;;5.40;99.90;;;;;;6129201;23;20025;-85
2023/01/14 07:16:57;;;;;;;48.63;9.68;;;5.50;99.90;;;;;;6155339;23;20017;-83
2023/01/14 07:19:22;;;;;;;43.58;9.18;;;5.50;99.90;;;;;;6155191;23;20386;-82
2023/01/14 07:21:48;;;;;;;45.20;10.38;;;6.00;99.90;;;;;;6130027;23;20024;-87
2023/01/14 07:24:14;;;;;;;45.53;9.63;;;5.60;99.90;;;;;;6155871;23;20010;-83
2023/01/14 07:26:39;;;;;;;40.38;9.70;;;5.60;99.90;;;;;;6153019;23;20020;-83
2023/01/14 07:29:05;;;;;;;35.97;8.98;;;5.60;99.90;;;;;;6152719;23;20006;-83
2023/01/14 07:31:30;;;;;;;37.13;9.23;;;5.60;99.90;;;;;;6152508;23;20096;-84
2023/01/14 07:33:56;;;;;;;38.13;8.45;;;5.60;99.90;;;;;;6152953;23;20458;-83
2023/01/14 07:36:22;;;;;;;34.90;8.45;;;5.90;99.90;;;;;;6152270;23;20021;-82
2023/01/14 07:38:47;;;;;;;44.38;8.88;;;5.70;99.90;;;;;;6152405;23;20017;-83
2023/01/14 07:41:18;;;;;;;42.58;9.18;;;5.70;99.90;;;;;;6152958;23;20384;-82
2023/01/14 07:43:47;;;;;;;35.35;8.68;;;6.30;99.90;;;;;;6153610;23;20085;-83
2023/01/14 07:46:14;;;;;;;46.65;9.02;;;5.70;99.90;;;;;;6153896;23;20016;-83
2023/01/14 07:48:41;;;;;;;46.13;9.38;;;5.80;99.90;;;;;;6155260;23;20028;-83
2023/01/14 07:51:08;;;;;;;48.70;10.18;;;5.80;99.90;;;;;;6152976;23;20060;-83
2023/01/14 07:53:34;;;;;;;40.97;9.30;;;5.80;99.90;;;;;;6153334;23;20084;-84
2023/01/14 07:56:02;;;;;;;39.88;8.60;;;5.80;99.90;;;;;;6151029;23;20045;-84
2023/01/14 07:58:27;;;;;;;42.65;9.10;;;5.80;99.90;;;;;;6124685;23;20017;-83
2023/01/14 08:00:53;;;;;;;39.85;8.70;;;6.00;99.90;;;;;;6150273;23;20055;-85
2023/01/14 08:03:20;;;;;;;40.47;10.23;;;5.90;99.90;;;;;;6150639;23;20020;-85
2023/01/14 08:05:46;;;;;;;44.13;10.13;;;5.90;99.90;;;;;;6150766;23;20229;-86
2023/01/14 08:08:12;;;;;;;49.85;10.25;;;6.30;99.90;;;;;;6125348;23;20115;-84
2023/01/14 08:10:38;;;;;;;38.75;9.20;;;5.90;99.90;;;;;;6149630;23;20013;-82
2023/01/14 08:13:04;;;;;;;35.42;8.80;;;6.10;99.90;;;;;;6151137;23;20356;-85
2023/01/14 08:15:29;;;;;;;43.17;9.05;;;6.00;99.90;;;;;;6125778;23;20018;-86
2023/01/14 08:17:59;;;;;;;47.30;9.02;;;6.00;99.90;;;;;;6152400;23;20051;-86
2023/01/14 08:20:26;;;;;;;48.33;10.27;;;6.00;99.90;;;;;;6152876;23;20441;-85
2023/01/14 08:22:57;;;;;;;34.67;8.15;;;6.00;99.90;;;;;;6149192;23;20018;-85
2023/01/14 08:25:23;;;;;;;45.83;8.40;;;6.30;99.90;;;;;;6151577;23;20009;-86
2023/01/14 08:27:49;;;;;;;40.55;8.05;;;6.30;99.90;;;;;;6151547;23;20041;-85
2023/01/14 08:30:14;;;;;;;47.33;9.48;;;6.10;99.90;;;;;;6150823;23;20088;-86
2023/01/14 08:32:40;;;;;;;44.28;8.63;;;6.10;99.90;;;;;;6151088;23;20084;-86
2023/01/14 08:35:06;;;;;;;45.58;9.55;;;6.70;99.90;;;;;;6151273;23;20040;-86
2023/01/14 08:37:32;;;;;;;33.20;8.20;;;6.10;99.90;;;;;;6150717;23;20013;-86
2023/01/14 08:39:58;;;;;;;53.70;9.50;;;6.10;99.90;;;;;;6126363;23;20016;-87
2023/01/14 08:42:23;;;;;;;39.17;8.18;;;6.10;99.90;;;;;;6126386;23;20049;-85
2023/01/14 08:44:49;;;;;;;43.67;8.43;;;6.10;99.90;;;;;;6150076;23;20028;-86
2023/01/14 08:47:15;;;;;;;40.85;8.25;;;6.10;99.90;;;;;;6150837;23;20010;-86
2023/01/14 08:49:40;;;;;;;39.80;8.48;;;6.10;99.90;;;;;;6125161;23;20345;-86
2023/01/14 08:52:07;;;;;;;55.28;8.48;;;6.10;99.90;;;;;;6150701;23;20089;-86
2023/01/14 08:54:33;;;;;;;81.95;10.45;;;6.60;99.90;;;;;;6151167;23;20057;-86
2023/01/14 08:57:00;;;;;;;39.47;9.80;;;6.70;99.90;;;;;;6151062;23;20064;-86
2023/01/14 08:59:26;;;;;;;35.97;7.15;;;6.10;99.90;;;;;;6152636;23;20013;-85
2023/01/14 09:01:52;;;;;;;37.03;8.13;;;6.10;99.90;;;;;;6152623;23;20059;-85
2023/01/14 09:04:17;;;;;;;45.20;8.68;;;6.10;99.90;;;;;;6151414;23;20010;-85
2023/01/14 09:17:42;;;;;;;37.53;8.32;;;6.00;99.90;;;;;;6149608;23;20014;-85
2023/01/14 09:20:17;;;;;;;44.65;7.90;;;6.10;99.90;;;;;;6150031;23;20014;-85
2023/01/14 09:22:44;;;;;;;37.50;7.13;;;6.10;99.90;;;;;;6151114;23;20018;-86
2023/01/14 09:25:10;;;;;;;32.00;6.43;;;6.10;99.90;;;;;;6126784;23;20084;-86
2023/01/14 09:27:36;;;;;;;53.00;8.48;;;6.30;99.90;;;;;;6151465;23;20017;-85
2023/01/14 09:30:02;;;;;;;38.53;7.15;;;6.20;99.90;;;;;;6152785;23;20365;-84
2023/01/14 09:32:28;;;;;;;40.80;7.30;;;6.10;99.90;;;;;;6150831;23;20013;-85
2023/01/14 09:34:54;;;;;;;35.90;7.32;;;6.10;99.90;;;;;;6126595;23;20019;-84
2023/01/14 09:37:22;;;;;;;53.08;8.30;;;5.80;99.90;;;;;;6151422;23;20096;-85
2023/01/14 09:39:49;;;;;;;40.47;7.95;;;6.10;99.90;;;;;;6152949;23;20014;-84
2023/01/14 09:42:24;;;;;;;42.20;8.05;;;6.60;99.90;;;;;;6149831;23;20093;-86
2023/01/14 09:44:53;;;;;;;35.13;7.35;;;6.10;99.90;;;;;;6151623;23;20381;-86
2023/01/14 09:47:22;;;;;;;34.03;7.65;;;6.60;99.90;;;;;;6152939;23;20432;-85
2023/01/14 09:49:48;;;;;;;35.10;7.40;;;6.60;99.90;;;;;;6151036;23;20359;-86
2023/01/14 09:52:23;;;;;;;27.45;7.70;;;6.10;99.90;;;;;;6148988;23;20089;-85
2023/01/14 09:55:13;;;;;;;27.40;6.60;;;6.70;99.90;;;;;;6150989;23;20417;-86
2023/01/14 09:57:46;;;;;;;35.78;7.38;;;6.20;99.90;;;;;;6148629;23;20017;-86
2023/01/14 10:00:33;;;;;;;31.27;7.18;;;6.20;99.90;;;;;;6149414;23;20159;-86
2023/01/14 10:03:16;;;;;;;37.22;6.65;;;6.20;99.90;;;;;;6150713;23;20156;-86
2023/01/14 10:05:50;;;;;;;27.10;6.10;;;6.20;99.90;;;;;;6150071;23;20013;-85
2023/01/14 10:08:17;;;;;;;24.10;5.97;;;6.20;99.90;;;;;;6151732;23;20014;-86
2023/01/14 10:10:46;;;;;;;29.90;6.60;;;6.30;99.90;;;;;;6150290;23;20017;-85
2023/01/14 10:13:17;;;;;;;21.95;6.30;;;6.30;99.90;;;;;;6151756;23;20464;-86
2023/01/14 10:15:49;;;;;;;22.52;5.65;;;6.30;99.90;;;;;;6151805;23;20292;-86
2023/01/14 10:18:36;;;;;;;17.77;5.07;;;6.30;99.90;;;;;;6150566;23;20068;-86
2023/01/14 10:21:19;;;;;;;19.80;5.85;;;6.30;99.90;;;;;;6153097;23;20006;-85
2023/01/14 10:23:45;;;;;;;20.15;5.25;;;6.40;99.90;;;;;;6150645;23;20117;-86
2023/01/14 10:26:14;;;;;;;20.00;4.72;;;6.40;99.90;;;;;;6150698;23;20024;-85
2023/01/14 10:28:42;;;;;;;15.38;4.38;;;6.80;99.90;;;;;;6151088;23;20024;-86
2023/01/14 10:31:16;;;;;;;17.10;4.63;;;6.60;99.90;;;;;;6150744;23;20021;-84
2023/01/14 10:33:41;;;;;;;18.35;4.43;;;6.50;99.90;;;;;;6152600;23;20016;-86
2023/01/14 10:36:16;;;;;;;15.68;4.55;;;6.60;99.90;;;;;;6150645;23;20018;-86
2023/01/14 10:38:42;;;;;;;16.55;4.97;;;7.30;99.90;;;;;;6151503;23;20009;-85
2023/01/14 10:41:10;;;;;;;18.73;5.18;;;7.20;99.90;;;;;;6150824;23;20380;-86
2023/01/14 10:43:42;;;;;;;15.02;4.45;;;6.70;99.90;;;;;;6150144;23;20120;-85
2023/01/14 10:46:21;;;;;;;14.38;4.35;;;7.20;99.90;;;;;;6124438;23;20020;-86
2023/01/14 10:49:11;;;;;;;37.40;6.05;;;6.70;99.90;;;;;;6152948;23;20017;-85
2023/01/14 10:51:39;;;;;;;12.82;4.65;;;6.70;99.90;;;;;;6150365;23;20088;-83
2023/01/14 10:54:19;;;;;;;17.70;5.45;;;6.70;99.90;;;;;;6144963;23;20014;-85
2023/01/14 10:57:08;;;;;;;11.85;4.00;;;6.80;99.90;;;;;;6119938;23;20017;-86
2023/01/14 10:59:44;;;;;;;12.90;4.47;;;6.80;99.90;;;;;;6147884;23;20124;-85
2023/01/14 11:02:33;;;;;;;10.70;4.03;;;6.90;99.90;;;;;;6147736;23;20017;-85
2023/01/14 11:05:00;;;;;;;29.35;5.35;;;6.90;99.90;;;;;;6147380;23;20048;-87
2023/01/14 11:07:33;;;;;;;14.43;5.32;;;7.20;99.90;;;;;;6125563;23;20045;-88
2023/01/14 11:10:08;;;;;;;15.30;5.13;;;7.00;99.90;;;;;;6125251;23;20014;-85
2023/01/14 11:12:34;;;;;;;15.85;5.55;;;7.00;99.90;;;;;;6149421;23;20021;-87
2023/01/14 11:15:00;;;;;;;13.85;4.93;;;7.10;99.90;;;;;;6123913;23;20022;-87
2023/01/14 11:17:28;;;;;;;12.40;4.70;;;7.10;99.90;;;;;;6125816;23;20036;-86
2023/01/14 11:20:23;;;;;;;13.45;4.80;;;7.10;99.90;;;;;;6152110;23;20020;-87
2023/01/14 11:23:02;;;;;;;17.02;5.07;;;7.10;99.90;;;;;;6149785;23;20018;-86
2023/01/14 11:25:28;;;;;;;15.05;5.30;;;7.10;99.90;;;;;;6150521;23;20120;-86
2023/01/14 11:27:56;;;;;;;12.32;4.82;;;7.10;99.90;;;;;;6150314;23;20049;-86
2023/01/14 11:30:23;;;;;;;15.18;5.72;;;7.20;99.90;;;;;;6150026;23;20073;-86
2023/01/14 11:32:51;;;;;;;13.98;5.03;;;7.10;99.90;;;;;;6150922;23;20013;-87
2023/01/14 11:35:35;;;;;;;10.07;5.25;;;7.50;99.90;;;;;;6129383;23;20557;-86
2023/01/14 11:38:03;;;;;;;9.90;4.72;;;7.10;99.90;;;;;;6125058;23;20440;-85
2023/01/14 11:43:19;;;;;;;7.80;4.20;;;7.10;99.90;;;;;;6149237;23;20290;-87
2023/01/14 11:45:45;;;;;;;11.75;4.93;;;7.10;99.90;;;;;;6150299;23;20052;-86
2023/01/14 11:48:29;;;;;;;12.80;4.10;;;7.20;99.90;;;;;;6150092;23;20359;-87
2023/01/14 11:51:03;;;;;;;12.27;4.65;;;7.10;99.90;;;;;;6150689;23;20615;-86
2023/01/14 11:54:13;;;;;;;10.50;4.60;;;7.10;99.90;;;;;;6149167;23;20014;-86
2023/01/14 11:56:41;;;;;;;10.98;4.57;;;7.10;99.90;;;;;;6090089;23;20091;-87
2023/01/14 11:59:31;;;;;;;11.38;4.65;;;7.40;99.90;;;;;;6041742;23;20082;-87
2023/01/14 12:02:09;;;;;;;9.15;4.25;;;7.20;99.90;;;;;;6065863;23;20014;-84
2023/01/14 12:05:00;;;;;;;12.30;4.43;;;7.20;99.90;;;;;;6067045;23;20010;-86
2023/01/14 12:07:41;;;;;;;8.75;4.15;;;7.20;99.90;;;;;;6063957;23;20052;-87
2023/01/14 12:10:19;;;;;;;10.45;3.90;;;7.20;99.90;;;;;;6041805;23;20397;-87
2023/01/14 12:18:53;;;;;;;12.27;3.88;;;7.20;99.90;;;;;;6090490;23;20019;-86
2023/01/14 12:21:25;;;;;;;8.75;3.78;;;7.50;99.90;;;;;;6091794;23;20025;-86
2023/01/14 12:23:59;;;;;;;9.70;3.97;;;7.30;99.90;;;;;;6088734;23;20077;-87
2023/01/14 12:26:27;;;;;;;;;;;7.30;99.90;;;;;;6040365;23;20052;-87
2023/01/14 12:28:59;;;;;;;11.13;4.30;;;7.30;99.90;;;;;;6063677;23;20135;-87
2023/01/14 12:31:35;;;;;;;10.15;3.67;;;7.30;99.90;;;;;;6136603;23;20095;-87
2023/01/14 12:34:26;;;;;;;6.68;3.28;;;7.30;99.90;;;;;;6123090;23;20021;-87
2023/01/14 12:36:51;;;;;;;24.10;4.78;;;7.30;99.90;;;;;;6122580;23;20014;-86
2023/01/14 12:45:47;;;;;;;8.77;3.50;;;7.40;99.90;;;;;;6151696;23;20021;-87
2023/01/14 12:48:15;;;;;;;12.60;4.07;;;7.40;99.90;;;;;;6149812;23;20071;-86
2023/01/14 12:50:50;;;;;;;9.18;3.75;;;7.40;99.90;;;;;;6149910;23;20024;-87
2023/01/14 12:53:47;;;;;;;8.63;3.58;;;7.50;99.90;;;;;;6124898;23;20021;-86
2023/01/14 12:56:26;;;;;;;14.95;4.10;;;7.50;99.90;;;;;;6145708;23;20055;-87
2023/01/14 12:59:32;;;;;;;10.70;4.07;;;7.60;99.90;;;;;;6152319;23;20067;-87
2023/01/14 13:02:26;;;;;;;9.43;3.75;;;7.60;99.90;;;;;;6043151;23;20025;-87
2023/01/14 13:05:12;;;;;;;8.10;3.95;;;7.60;99.90;;;;;;6067337;23;20166;-86
2023/01/14 13:07:50;;;;;;;9.15;3.70;;;7.70;99.90;;;;;;6067949;23;20025;-86
2023/01/14 13:10:45;;;;;;;8.70;3.47;;;7.70;99.90;;;;;;6066599;23;20025;-86
2023/01/14 13:13:23;;;;;;;7.68;3.55;;;7.80;99.90;;;;;;6078772;23;20350;-87
2023/01/14 13:15:50;;;;;;;11.32;3.80;;;7.80;99.90;;;;;;6043667;23;20015;-87
2023/01/14 13:18:34;;;;;;;8.00;3.33;;;7.90;99.90;;;;;;6067199;23;20045;-86
2023/01/14 13:21:00;;;;;;;;;;;7.90;99.90;;;;;;6041657;23;20093;-88
2023/01/14 13:23:56;;;;;;;8.88;3.15;;;7.90;99.90;;;;;;6043248;23;19925;-86
2023/01/14 13:26:28;;;;;;;11.57;3.05;;;8.00;99.90;;;;;;6042803;23;20341;-87
2023/01/14 13:29:30;;;;;;;7.47;3.10;;;8.10;99.90;;;;;;6043973;23;20015;-88
2023/01/14 13:31:57;;;;;;;8.05;2.97;;;8.10;99.90;;;;;;6043101;23;20089;-86
2023/01/14 13:34:22;;;;;;;6.75;3.15;;;8.10;99.90;;;;;;6065684;23;20030;-83
2023/01/14 13:37:18;;;;;;;9.55;3.20;;;8.20;99.90;;;;;;6069649;23;20564;-91
2023/01/14 13:39:49;;;;;;;7.10;2.63;;;8.20;99.90;;;;;;6038766;23;20018;-87
2023/01/14 13:42:23;;;;;;;5.63;3.15;;;8.30;99.90;;;;;;6070875;23;20493;-85
2023/01/14 13:44:51;;;;;;;9.55;4.30;;;8.30;99.90;;;;;;6064135;23;20022;-85
2023/01/14 13:47:35;;;;;;;8.10;3.13;;;8.40;99.90;;;;;;6040196;23;20076;-85
2023/01/14 13:50:26;;;;;;;6.32;2.90;;;8.40;99.90;;;;;;6090011;23;20025;-84
2023/01/14 13:53:08;;;;;;;7.32;3.42;;;8.40;99.90;;;;;;6052725;23;20474;-83